CW6407 Weather Reports


time (UTC)temp
C
wind
direction
speed
KPH
gust
KPH
rain 1hr
cm
rain 24hr
cm
rain mn
cm
humidity
%
barometer
mb
20191021020646 10 29 6.4 11.3 0.00 0.00 0.00 91 1013.8
20191021015646 10 55 8.0 12.9 0.00 0.00 0.00 90 1013.8
20191021014646 10 67 3.2 8.0 0.00 0.00 0.00 90 1013.4
20191021013646 10 67 3.2 11.3 0.00 0.00 0.00 90 1013.4
20191021011646 10 86 6.4 11.3 0.00 0.00 0.00 90 1013.5
20191021010645 10 57 1.6 4.8 0.00 0.00 0.00 90 1013.5
20191021002646 10 58 0.0 9.7 0.00 0.00 0.00 90 1013.1
20191021001645 10 57 3.2 9.7 0.00 0.00 0.00 90 1013.0
20191020235646 10 78 6.4 11.3 0.00 0.00 0.00 90 1013.0
20191020234646 10 73 8.0 14.5 0.00 0.00 0.00 90 1013.0
20191020231645 10 41 4.8 11.3 0.00 0.00 0.00 89 1013.1
20191020230645 10 68 8.0 11.3 0.00 0.00 0.00 89 1013.1
20191020224646 11 59 8.0 16.1 0.00 0.00 0.00 89 1012.8
20191020222645 11 66 9.7 19.3 0.00 0.00 0.00 89 1012.8
20191020220646 11 47 9.7 19.3 0.00 0.00 0.00 89 1013.0
20191020214646 11 57 9.7 16.1 0.00 0.00 0.00 89 1013.0
20191020213645 11 40 8.0 11.3 0.00 0.00 0.00 88 1013.0
20191020212645 11 65 8.0 14.5 0.00 0.00 0.00 88 1012.8
20191020211646 11 74 9.7 16.1 0.00 0.00 0.00 88 1012.6
20191020210646 11 53 9.7 20.9 0.00 0.00 0.00 88 1012.6
20191020205645 11 65 11.3 19.3 0.00 0.00 0.00 88 1012.3
20191020204646 11 54 11.3 22.5 0.00 0.00 0.00 88 1012.1
20191020203646 11 69 14.5 22.5 0.00 0.00 0.00 88 1012.1
20191020202645 11 28 11.3 24.1 0.00 0.00 0.00 88 1012.6
20191020201645 11 67 8.0 19.3 0.00 0.00 0.00 89 1012.6
20191020200646 11 76 8.0 19.3 0.00 0.00 0.00 89 1012.6
20191020194645 11 46 9.7 16.1 0.00 0.00 0.00 88 1012.3
20191020191646 11 73 14.5 24.1 0.00 0.00 0.00 88 1012.5
20191020190646 11 66 12.9 20.9 0.00 0.00 0.00 88 1012.5
20191020185645 11 74 9.7 20.9 0.00 0.00 0.00 87 1012.5
20191020184645 11 58 8.0 16.1 0.00 0.00 0.00 87 1012.5
20191020183645 11 61 8.0 16.1 0.00 0.00 0.00 87 1012.5
20191020181645 11 35 9.7 19.3 0.00 0.00 0.00 87 1012.6
20191020180645 11 53 12.9 22.5 0.00 0.00 0.00 87 1012.6
20191020175645 11 78 14.5 27.4 0.00 0.00 0.00 86 1012.4
20191020174645 11 72 14.5 24.1 0.00 0.00 0.00 86 1012.3
20191020173645 11 71 16.1 24.1 0.00 0.00 0.00 86 1012.3
20191020172645 11 71 12.9 20.9 0.00 0.00 0.00 86 1012.4
20191020171645 11 54 12.9 20.9 0.00 0.00 0.00 86 1012.0
20191020170647 11 31 9.7 25.7 0.00 0.00 0.00 86 1012.0
20191020165646 11 46 8.0 19.3 0.00 0.00 0.00 85 1012.1
20191020164646 12 51 11.3 19.3 0.00 0.00 0.00 85 1012.1
20191020163645 12 60 8.0 19.3 0.00 0.00 0.00 85 1012.1
20191020160644 12 67 9.7 16.1 0.00 0.00 0.00 83 1012.1
20191020154644 13 75 12.9 16.1 0.00 0.00 0.00 82 1011.9
20191020153644 13 80 9.7 20.9 0.00 0.00 0.00 81 1011.9
20191020152644 13 76 8.0 16.1 0.00 0.00 0.00 81 1012.0
20191020150644 13 78 11.3 16.1 0.00 0.00 0.00 81 1011.9
20191020145643 13 67 11.3 19.3 0.00 0.00 0.00 79 1011.9
20191020144644 13 61 11.3 16.1 0.00 0.00 0.00 79 1011.8
20191020141644 15 81 16.1 22.5 0.00 0.00 0.00 76 1011.6
20191020140645 15 93 14.5 22.5 0.00 0.00 0.00 75 1011.6
20191020135643 15 82 11.3 20.9 0.00 0.00 0.00 75 1011.2
20191020134643 15 86 14.5 22.5 0.00 0.00 0.00 74 1011.3
20191020132643 15 86 11.3 19.3 0.00 0.00 0.00 73 1011.4
20191020131644 15 105 14.5 24.1 0.00 0.00 0.00 73 1011.4
20191020122644 15 88 16.1 24.1 0.00 0.00 0.00 71 1011.6
20191020113643 16 40 6.4 16.1 0.00 0.00 0.00 72 1011.6
20191020112643 16 57 4.8 14.5 0.00 0.00 0.00 70 1011.5
20191020111643 16 104 8.0 11.3 0.00 0.00 0.00 70 1011.4
20191020110643 16 78 4.8 14.5 0.00 0.00 0.00 69 1011.4
20191020105643 16 78 8.0 12.9 0.00 0.00 0.00 69 1011.5
20191020103643 15 65 6.4 16.1 0.00 0.00 0.00 73 1011.6
20191020102642 15 88 11.3 19.3 0.00 0.00 0.00 73 1011.6
20191020101642 15 82 11.3 20.9 0.00 0.00 0.00 72 1011.8
20191020100645 15 55 9.7 19.3 0.00 0.00 0.00 73 1011.8
20191020095644 15 52 14.5 20.9 0.00 0.00 0.00 76 1012.2
20191020092643 14 69 9.7 14.5 0.00 0.00 0.00 78 1012.2
20191020084644 13 96 12.9 19.3 0.00 0.00 0.00 80 1012.1
20191020083645 12 80 14.5 22.5 0.00 0.00 0.00 82 1012.1
20191020082646 12 74 14.5 19.3 0.00 0.00 0.00 83 1012.2
20191020081646 12 61 11.3 16.1 0.00 0.00 0.00 84 1011.9
20191020073648 11 76 14.5 24.1 0.00 0.00 0.00 85 1012.2
20191020071647 11 76 16.1 24.1 0.00 0.00 0.00 88 1012.0
20191020070648 10 77 9.7 19.3 0.00 0.00 0.00 90 1012.0
20191020064649 9 54 11.3 20.9 0.00 0.00 0.00 94 1012.3
20191020063647 8 68 9.7 16.1 0.00 0.00 0.00 94 1012.3
20191020060648 7 72 4.8 8.0 0.00 0.00 0.00 92 1012.1
20191020055650 7 72 3.2 9.7 0.00 0.00 0.00 92 1012.0
20191020053649 7 52 0.0 3.2 0.00 0.00 0.00 92 1011.9
20191020052649 7 52 0.0 1.6 0.00 0.00 0.00 92 1011.8
20191020050652 8 52 3.2 8.0 0.00 0.00 0.00 93 1011.7
20191020045652 8 52 3.2 9.7 0.00 0.00 0.00 93 1011.6
20191020044652 7 33 4.8 11.3 0.00 0.00 0.00 94 1012.0
20191020043653 7 53 1.6 4.8 0.00 0.00 0.00 93 1012.0
20191020042652 7 69 0.0 1.6 0.00 0.00 0.00 93 1011.9
20191020041653 7 69 0.0 1.6 0.00 0.00 0.00 92 1011.7
20191020035653 7 69 0.0 1.6 0.00 0.00 0.00 92 1011.7
20191020033654 7 69 3.2 4.8 0.00 0.00 0.00 92 1011.9
20191020032654 7 69 0.0 3.2 0.00 0.00 0.00 92 1012.1
20191020030655 7 69 0.0 0.0 0.00 0.00 0.00 92 1012.1
20191020025655 7 69 1.6 4.8 0.00 0.00 0.00 92 1011.9
20191020024655 7 69 0.0 3.2 0.00 0.00 0.00 92 1012.1
20191020023655 7 69 0.0 3.2 0.00 0.00 0.00 91 1012.1
20191020022656 7 69 0.0 0.0 0.00 0.00 0.00 91 1012.0
20191020021656 7 69 0.0 0.0 0.00 0.00 0.00 92 1012.1